Time;durP1;ratioP1;P1;durP2;ratioP2;P2;SDS_P1;SDS_P2;PMS_P1;PMS_P2;Temp;Humidity;BMP_temperature;BMP_pressure;BME280_temperature;BME280_humidity;BME280_pressure;Samples;Min_cycle;Max_cycle;Signal;HPM_P1;HPM_P2
2024/01/28 00:01:17;;;;;;;29.52;15.75;;;3.10;99.90;;;;;;5031708;28;20436;-73
2024/01/28 00:03:43;;;;;;;36.30;17.90;;;3.10;99.90;;;;;;5032941;28;20041;-73
2024/01/28 00:06:09;;;;;;;32.40;17.42;;;3.10;99.90;;;;;;5032630;28;20148;-73
2024/01/28 00:08:34;;;;;;;26.95;14.95;;;3.20;99.90;;;;;;5033636;28;20413;-73
2024/01/28 00:11:00;;;;;;;30.58;14.98;;;3.20;99.90;;;;;;5033104;28;20397;-73
2024/01/28 00:13:26;;;;;;;32.25;15.93;;;3.20;99.90;;;;;;5032213;28;20017;-73
2024/01/28 00:15:52;;;;;;;33.42;15.82;;;3.20;99.90;;;;;;5033392;28;20037;-73
2024/01/28 00:18:19;;;;;;;33.53;16.38;;;3.20;99.90;;;;;;5032951;28;20030;-73
2024/01/28 00:20:45;;;;;;;35.00;17.05;;;3.20;99.90;;;;;;5028999;28;20022;-73
2024/01/28 00:23:11;;;;;;;29.45;16.90;;;3.30;99.90;;;;;;5013335;28;20022;-73
2024/01/28 00:25:37;;;;;;;26.67;15.32;;;3.30;99.90;;;;;;5013885;28;20040;-73
2024/01/28 00:28:03;;;;;;;32.75;18.27;;;3.20;99.90;;;;;;5032794;28;20052;-73
2024/01/28 00:30:32;;;;;;;27.80;16.60;;;3.20;99.90;;;;;;5031744;28;20486;-73
2024/01/28 00:32:58;;;;;;;24.75;15.07;;;3.10;99.90;;;;;;5031049;28;20026;-73
2024/01/28 00:35:24;;;;;;;29.33;14.80;;;3.10;99.90;;;;;;5032402;28;20367;-73
2024/01/28 00:37:49;;;;;;;28.40;14.98;;;3.10;99.90;;;;;;5032114;28;20033;-73
2024/01/28 00:40:15;;;;;;;31.58;15.60;;;3.10;99.90;;;;;;5033098;28;20040;-73
2024/01/28 00:42:41;;;;;;;27.20;15.25;;;3.20;99.90;;;;;;5031800;28;20026;-73
2024/01/28 00:45:07;;;;;;;38.33;16.13;;;3.20;99.90;;;;;;5032993;28;20033;-73
2024/01/28 00:47:32;;;;;;;33.10;17.08;;;3.20;99.90;;;;;;5031944;28;20026;-73
2024/01/28 00:49:58;;;;;;;35.78;16.50;;;3.20;99.90;;;;;;5026463;28;20368;-73
2024/01/28 00:52:24;;;;;;;33.90;16.90;;;3.20;99.90;;;;;;5029564;28;20367;-73
2024/01/28 00:54:50;;;;;;;36.13;16.58;;;3.20;99.90;;;;;;5024820;28;20135;-73
2024/01/28 00:57:15;;;;;;;31.52;16.80;;;3.20;99.90;;;;;;5025696;28;20437;-73
2024/01/28 00:59:41;;;;;;;27.58;15.38;;;3.20;99.90;;;;;;5032115;28;20049;-73
2024/01/28 01:02:07;;;;;;;27.58;14.88;;;3.10;99.90;;;;;;5032390;28;20528;-73
2024/01/28 01:04:32;;;;;;;35.05;16.75;;;3.10;99.90;;;;;;5032123;28;20410;-73
2024/01/28 01:06:58;;;;;;;34.17;15.48;;;3.10;99.90;;;;;;5032325;28;20057;-73
2024/01/28 01:09:25;;;;;;;29.48;16.33;;;3.10;99.90;;;;;;5031915;28;20544;-73
2024/01/28 01:11:50;;;;;;;34.67;17.55;;;3.00;99.90;;;;;;5031005;28;20017;-73
2024/01/28 01:14:16;;;;;;;31.88;16.63;;;3.00;99.90;;;;;;5030766;28;20037;-73
2024/01/28 01:16:42;;;;;;;32.22;17.45;;;3.00;99.90;;;;;;5031834;28;20387;-73
2024/01/28 01:19:07;;;;;;;39.67;14.73;;;3.00;99.90;;;;;;5031989;28;20056;-73
2024/01/28 01:21:33;;;;;;;31.70;15.73;;;3.00;99.90;;;;;;5022427;28;20025;-73
2024/01/28 01:23:59;;;;;;;28.73;14.30;;;3.00;99.90;;;;;;5012404;28;20391;-73
2024/01/28 01:26:24;;;;;;;25.00;14.23;;;3.00;99.90;;;;;;5043007;28;20328;-73
2024/01/28 01:28:50;;;;;;;30.08;16.70;;;3.00;99.90;;;;;;5011755;28;20040;-73
2024/01/28 01:31:16;;;;;;;29.42;17.70;;;3.00;99.90;;;;;;5011715;28;20678;-73
2024/01/28 01:33:42;;;;;;;35.35;16.33;;;3.00;99.90;;;;;;5011459;28;20476;-73
2024/01/28 01:36:08;;;;;;;29.90;15.68;;;3.00;99.90;;;;;;5011788;28;20116;-73
2024/01/28 01:38:33;;;;;;;28.00;14.75;;;3.00;99.90;;;;;;5014110;28;20475;-73
2024/01/28 01:40:59;;;;;;;27.15;15.32;;;3.00;99.90;;;;;;5026808;28;20026;-73
2024/01/28 01:43:25;;;;;;;33.53;16.15;;;3.00;99.90;;;;;;5023568;28;20038;-73
2024/01/28 01:45:52;;;;;;;30.67;14.93;;;2.90;99.90;;;;;;5029229;28;20593;-73
2024/01/28 01:48:18;;;;;;;33.08;15.40;;;3.00;99.90;;;;;;5031955;28;20032;-73
2024/01/28 01:50:45;;;;;;;28.98;15.52;;;3.00;99.90;;;;;;5031485;28;20045;-73
2024/01/28 01:53:11;;;;;;;26.05;15.95;;;3.00;99.90;;;;;;5031188;28;20148;-73
2024/01/28 01:55:39;;;;;;;34.97;16.48;;;3.00;99.90;;;;;;5030761;28;20043;-73
2024/01/28 01:58:05;;;;;;;25.45;15.30;;;3.00;99.90;;;;;;5031111;28;20104;-73
2024/01/28 02:00:32;;;;;;;37.00;16.50;;;3.00;99.90;;;;;;5031247;28;20375;-73
2024/01/28 02:02:58;;;;;;;34.45;17.77;;;2.90;99.90;;;;;;5031884;28;20033;-73
2024/01/28 02:05:24;;;;;;;33.25;16.15;;;2.90;99.90;;;;;;5030778;28;20033;-73
2024/01/28 02:07:50;;;;;;;38.42;16.77;;;2.90;99.90;;;;;;5031579;28;20371;-74
2024/01/28 02:10:16;;;;;;;27.17;16.05;;;2.90;99.90;;;;;;5031026;28;20030;-74
2024/01/28 02:12:45;;;;;;;29.65;15.90;;;2.80;99.90;;;;;;5031730;28;20026;-74
2024/01/28 02:15:11;;;;;;;36.17;18.17;;;2.80;99.90;;;;;;5031337;28;20025;-74
2024/01/28 02:17:37;;;;;;;35.30;17.45;;;2.80;99.90;;;;;;5030697;28;20032;-74
2024/01/28 02:20:04;;;;;;;36.47;17.52;;;2.80;99.90;;;;;;5031109;28;20037;-74
2024/01/28 02:22:30;;;;;;;41.80;18.70;;;2.80;99.90;;;;;;5013918;28;20025;-74
2024/01/28 02:24:59;;;;;;;35.28;18.23;;;2.70;99.90;;;;;;5012062;28;20080;-74
2024/01/28 02:27:25;;;;;;;28.50;15.88;;;2.70;99.90;;;;;;5026179;28;20485;-74
2024/01/28 02:29:50;;;;;;;32.67;16.30;;;2.80;99.90;;;;;;5031506;28;20056;-74
2024/01/28 02:32:17;;;;;;;36.28;17.20;;;2.70;99.90;;;;;;5031309;28;20033;-74
2024/01/28 02:34:43;;;;;;;35.42;15.77;;;2.80;99.90;;;;;;5030633;28;20654;-73
2024/01/28 02:37:10;;;;;;;30.98;15.25;;;2.80;99.90;;;;;;5030133;28;20033;-74
2024/01/28 02:39:36;;;;;;;32.80;16.48;;;2.70;99.90;;;;;;5029802;28;20032;-74
2024/01/28 02:42:02;;;;;;;27.10;15.20;;;2.60;99.90;;;;;;5029538;28;20649;-74
2024/01/28 02:44:28;;;;;;;35.30;15.38;;;2.60;99.90;;;;;;5030923;28;20122;-74
2024/01/28 02:46:55;;;;;;;30.17;15.02;;;2.60;99.90;;;;;;5033783;28;20075;-74
2024/01/28 02:49:23;;;;;;;38.00;16.38;;;2.60;99.90;;;;;;5034081;28;20029;-74
2024/01/28 02:51:52;;;;;;;30.83;16.58;;;2.50;99.90;;;;;;5032770;28;20029;-74
2024/01/28 02:54:18;;;;;;;36.97;16.55;;;2.50;99.90;;;;;;5035169;28;20060;-74
2024/01/28 02:56:44;;;;;;;30.80;15.18;;;2.50;99.90;;;;;;5032928;28;20139;-74
2024/01/28 02:59:10;;;;;;;30.95;14.63;;;2.50;99.90;;;;;;5033487;28;20038;-74
2024/01/28 03:01:46;;;;;;;24.85;14.20;;;2.60;99.90;;;;;;5034457;28;20068;-74
2024/01/28 03:04:12;;;;;;;28.05;14.05;;;2.60;99.90;;;;;;5033643;28;20037;-74
2024/01/28 03:06:37;;;;;;;28.90;14.60;;;2.60;99.90;;;;;;5035042;28;20025;-74
2024/01/28 03:09:04;;;;;;;28.10;14.20;;;2.60;99.90;;;;;;5034099;28;20026;-74
2024/01/28 03:11:30;;;;;;;22.83;14.65;;;2.60;99.90;;;;;;5033828;28;20052;-74
2024/01/28 03:13:56;;;;;;;25.20;14.18;;;2.60;99.90;;;;;;5041579;28;20474;-74
2024/01/28 03:16:22;;;;;;;23.88;13.70;;;2.60;99.90;;;;;;5032678;28;20655;-74
2024/01/28 03:18:47;;;;;;;31.77;12.98;;;2.60;99.90;;;;;;5034079;28;20032;-74
2024/01/28 03:21:13;;;;;;;27.10;14.15;;;2.60;99.90;;;;;;5025377;28;20022;-74
2024/01/28 03:23:39;;;;;;;27.48;14.73;;;2.50;99.90;;;;;;5014004;28;20037;-74
2024/01/28 03:26:05;;;;;;;30.75;15.25;;;2.50;99.90;;;;;;5017859;28;20048;-74
2024/01/28 03:28:31;;;;;;;33.85;16.55;;;2.50;99.90;;;;;;5052744;28;20033;-74
2024/01/28 03:30:57;;;;;;;28.25;16.00;;;2.50;99.90;;;;;;5053702;28;20111;-74
2024/01/28 03:33:23;;;;;;;30.80;15.52;;;2.40;99.90;;;;;;5053154;28;20096;-74
2024/01/28 03:35:49;;;;;;;33.95;17.23;;;2.50;99.90;;;;;;5053943;28;20037;-74
2024/01/28 03:38:14;;;;;;;22.90;15.02;;;2.40;99.90;;;;;;5051585;28;20027;-74
2024/01/28 03:40:40;;;;;;;32.10;14.73;;;2.40;99.90;;;;;;5031952;28;20393;-74
2024/01/28 03:43:06;;;;;;;29.83;13.88;;;2.30;99.90;;;;;;5032493;28;20029;-74
2024/01/28 03:45:31;;;;;;;25.85;14.38;;;2.30;99.90;;;;;;5034150;28;20104;-74
2024/01/28 03:47:57;;;;;;;28.83;14.45;;;2.30;99.90;;;;;;5033864;28;20772;-74
2024/01/28 03:50:24;;;;;;;34.88;16.20;;;2.40;99.90;;;;;;5033300;28;20210;-74
2024/01/28 03:52:50;;;;;;;28.75;14.45;;;2.40;99.90;;;;;;5033512;28;20072;-75
2024/01/28 03:55:15;;;;;;;28.70;13.88;;;2.30;99.90;;;;;;5033129;28;20029;-74
2024/01/28 03:57:43;;;;;;;29.75;13.65;;;2.20;99.90;;;;;;5030238;28;20022;-75
2024/01/28 04:00:11;;;;;;;32.60;14.50;;;2.20;99.90;;;;;;5033721;28;20128;-74
2024/01/28 04:02:38;;;;;;;30.67;14.63;;;2.10;99.90;;;;;;5033616;28;20029;-75
2024/01/28 04:05:04;;;;;;;36.25;16.30;;;2.00;99.90;;;;;;5033450;28;20426;-74
2024/01/28 04:07:30;;;;;;;30.30;14.70;;;2.00;99.90;;;;;;5033008;28;20428;-74
2024/01/28 04:09:55;;;;;;;29.08;14.98;;;2.00;99.90;;;;;;5023834;28;20515;-74
2024/01/28 04:12:22;;;;;;;28.20;15.82;;;2.00;99.90;;;;;;5013716;28;20518;-74
2024/01/28 04:14:47;;;;;;;31.15;15.57;;;2.00;99.90;;;;;;5013738;28;20029;-74
2024/01/28 04:17:13;;;;;;;28.77;14.63;;;2.00;99.90;;;;;;5029548;28;20383;-74
2024/01/28 04:19:39;;;;;;;34.15;15.60;;;1.90;99.90;;;;;;5032778;28;20021;-75
2024/01/28 04:22:06;;;;;;;34.85;13.90;;;1.90;99.90;;;;;;5017871;28;20629;-75
2024/01/28 04:24:32;;;;;;;28.25;13.35;;;1.90;99.90;;;;;;5025341;28;20033;-75
2024/01/28 04:26:58;;;;;;;33.30;15.07;;;2.00;99.90;;;;;;5032702;28;20096;-75
2024/01/28 04:29:23;;;;;;;30.73;13.95;;;2.00;99.90;;;;;;5032671;28;20419;-75
2024/01/28 04:31:50;;;;;;;27.08;13.57;;;2.00;99.90;;;;;;5032284;28;20566;-74
2024/01/28 04:34:15;;;;;;;33.67;14.45;;;2.10;99.90;;;;;;5032580;28;20025;-75
2024/01/28 04:36:41;;;;;;;29.05;13.15;;;2.00;99.90;;;;;;5033065;28;20044;-75
2024/01/28 04:39:07;;;;;;;31.13;13.07;;;2.10;99.90;;;;;;5031605;28;20104;-74
2024/01/28 04:41:33;;;;;;;26.45;11.40;;;2.10;99.90;;;;;;5033098;28;20029;-74
2024/01/28 04:43:59;;;;;;;22.80;11.38;;;2.10;99.90;;;;;;5032220;28;20071;-74
2024/01/28 04:46:24;;;;;;;27.58;11.80;;;2.10;99.90;;;;;;5032053;28;20112;-75
2024/01/28 04:48:50;;;;;;;23.80;10.88;;;2.10;99.90;;;;;;5033091;28;20433;-74
2024/01/28 04:51:16;;;;;;;21.38;11.35;;;2.10;99.90;;;;;;5031819;28;20029;-75
2024/01/28 04:53:42;;;;;;;27.40;11.60;;;2.10;99.90;;;;;;5031955;28;20064;-75
2024/01/28 04:56:11;;;;;;;27.83;12.13;;;2.10;99.90;;;;;;5031114;28;20068;-75
2024/01/28 04:58:37;;;;;;;29.27;12.05;;;2.00;99.90;;;;;;5032058;28;20088;-75
2024/01/28 05:01:03;;;;;;;32.17;13.05;;;2.00;99.90;;;;;;5032454;28;20026;-75
2024/01/28 05:03:29;;;;;;;25.10;10.07;;;2.00;99.90;;;;;;5030194;28;20373;-75
2024/01/28 05:05:54;;;;;;;24.48;10.35;;;2.00;99.90;;;;;;5031737;28;20060;-74
2024/01/28 05:08:20;;;;;;;22.58;9.40;;;2.10;99.90;;;;;;5032157;28;20057;-75
2024/01/28 05:10:46;;;;;;;20.92;10.48;;;2.10;99.90;;;;;;5029605;28;20024;-74
2024/01/28 05:13:11;;;;;;;25.67;12.07;;;2.10;99.90;;;;;;5032636;28;20383;-75
2024/01/28 05:15:37;;;;;;;28.20;11.07;;;2.00;99.90;;;;;;5032699;28;20029;-75
2024/01/28 05:18:03;;;;;;;28.88;11.82;;;2.00;99.90;;;;;;5032008;28;20060;-75
2024/01/28 05:20:29;;;;;;;23.08;12.73;;;2.00;99.90;;;;;;5031974;28;20037;-75
2024/01/28 05:22:59;;;;;;;31.92;12.77;;;2.00;99.90;;;;;;5030087;28;20036;-75
2024/01/28 05:25:26;;;;;;;19.05;10.68;;;2.00;99.90;;;;;;5031203;28;20040;-75
2024/01/28 05:27:51;;;;;;;27.13;10.80;;;2.00;99.90;;;;;;5032790;28;20018;-75
2024/01/28 05:30:17;;;;;;;23.75;9.73;;;1.90;99.90;;;;;;5030348;28;20040;-75
2024/01/28 05:32:43;;;;;;;22.83;9.75;;;1.90;99.90;;;;;;5031558;28;20029;-74
2024/01/28 05:35:09;;;;;;;24.05;10.30;;;1.90;99.90;;;;;;5031375;28;20026;-75
2024/01/28 05:37:36;;;;;;;25.60;10.60;;;1.80;99.90;;;;;;5031222;28;20230;-75
2024/01/28 05:40:03;;;;;;;26.10;11.68;;;1.80;99.90;;;;;;5026227;28;20428;-74
2024/01/28 05:42:29;;;;;;;24.80;10.68;;;1.80;99.90;;;;;;5018231;28;20105;-74
2024/01/28 05:44:55;;;;;;;30.45;10.73;;;1.80;99.90;;;;;;5012404;28;20136;-75
2024/01/28 05:47:20;;;;;;;22.95;10.98;;;1.80;99.90;;;;;;5012161;28;20424;-75
2024/01/28 05:49:46;;;;;;;22.63;11.10;;;1.70;99.90;;;;;;5011845;28;20387;-74
2024/01/28 05:52:12;;;;;;;21.92;8.70;;;1.80;99.90;;;;;;5012124;28;20083;-75
2024/01/28 05:54:41;;;;;;;23.27;10.20;;;1.80;99.90;;;;;;5012062;28;20032;-75
2024/01/28 05:57:08;;;;;;;27.15;10.90;;;1.70;99.90;;;;;;5012013;28;20030;-75
2024/01/28 05:59:34;;;;;;;20.00;9.65;;;1.70;99.90;;;;;;5012351;28;20054;-74
2024/01/28 06:01:59;;;;;;;25.73;9.93;;;1.70;99.90;;;;;;5012445;28;20517;-75
2024/01/28 06:04:25;;;;;;;20.13;9.25;;;1.70;99.90;;;;;;5015398;28;20043;-75
2024/01/28 06:06:51;;;;;;;19.52;10.75;;;1.80;99.90;;;;;;5020469;28;20026;-75
2024/01/28 06:09:18;;;;;;;18.48;9.93;;;1.70;99.90;;;;;;5013597;28;20060;-75
2024/01/28 06:11:43;;;;;;;24.75;9.65;;;1.70;99.90;;;;;;5032000;28;20636;-75
2024/01/28 06:14:10;;;;;;;22.58;9.57;;;1.70;99.90;;;;;;5030641;28;20048;-75
2024/01/28 06:16:36;;;;;;;23.90;9.90;;;1.70;99.90;;;;;;5032023;28;20048;-75
2024/01/28 06:19:02;;;;;;;24.42;10.40;;;1.70;99.90;;;;;;5030847;28;20060;-75
2024/01/28 06:21:28;;;;;;;22.17;9.75;;;1.70;99.90;;;;;;5034851;28;20029;-75
2024/01/28 06:23:54;;;;;;;15.73;9.85;;;1.70;99.90;;;;;;5034753;28;20037;-75
2024/01/28 06:26:20;;;;;;;24.70;9.40;;;1.70;99.90;;;;;;5035134;28;20133;-75
2024/01/28 06:28:46;;;;;;;19.98;9.23;;;1.70;99.90;;;;;;5034726;28;20025;-75
2024/01/28 06:31:13;;;;;;;20.52;9.23;;;1.70;99.90;;;;;;5033680;28;20029;-75
2024/01/28 06:33:39;;;;;;;21.88;8.70;;;1.70;99.90;;;;;;5034586;28;20382;-75
2024/01/28 06:36:05;;;;;;;19.88;8.90;;;1.70;99.90;;;;;;5035638;28;20025;-75
2024/01/28 06:38:31;;;;;;;21.45;8.90;;;1.60;99.90;;;;;;5035616;28;20025;-75
2024/01/28 06:40:57;;;;;;;18.33;8.35;;;1.60;99.90;;;;;;5035474;28;20033;-75
2024/01/28 06:43:25;;;;;;;21.38;8.15;;;1.60;99.90;;;;;;5034885;28;20033;-75
2024/01/28 06:45:51;;;;;;;20.55;8.95;;;1.60;99.90;;;;;;5033030;28;20022;-75
2024/01/28 06:48:17;;;;;;;22.58;9.57;;;1.60;99.90;;;;;;5034369;28;20199;-75
2024/01/28 06:50:44;;;;;;;19.80;8.85;;;1.60;99.90;;;;;;5034751;28;20100;-75
2024/01/28 06:53:10;;;;;;;21.02;8.48;;;1.70;99.90;;;;;;5034785;28;20037;-75
2024/01/28 06:55:36;;;;;;;22.88;9.05;;;1.60;99.90;;;;;;5035428;28;20030;-75
2024/01/28 06:58:02;;;;;;;22.73;9.13;;;1.60;99.90;;;;;;5033190;28;20466;-75
2024/01/28 07:00:27;;;;;;;23.80;9.57;;;1.60;99.90;;;;;;5026254;28;20120;-75
2024/01/28 07:02:56;;;;;;;25.55;9.57;;;1.50;99.90;;;;;;5018412;28;20471;-75
2024/01/28 07:05:22;;;;;;;17.20;7.97;;;1.60;99.90;;;;;;5013787;28;20032;-76
2024/01/28 07:07:48;;;;;;;23.05;8.95;;;1.60;99.90;;;;;;5014351;28;20112;-75
2024/01/28 07:10:15;;;;;;;20.27;6.93;;;1.60;99.90;;;;;;5014975;28;20487;-75
2024/01/28 07:12:41;;;;;;;21.23;8.32;;;1.60;99.90;;;;;;5013349;28;20219;-75
2024/01/28 07:15:07;;;;;;;17.52;7.60;;;1.60;99.90;;;;;;5018497;28;20033;-75
2024/01/28 07:17:33;;;;;;;22.17;8.93;;;1.50;99.90;;;;;;5033276;28;20025;-75
2024/01/28 07:19:59;;;;;;;16.00;7.70;;;1.50;99.90;;;;;;5032416;28;20137;-75
2024/01/28 07:22:24;;;;;;;24.33;8.60;;;1.40;99.90;;;;;;5033336;28;20071;-75
2024/01/28 07:24:50;;;;;;;23.85;8.68;;;1.50;99.90;;;;;;5033406;28;20068;-76
2024/01/28 07:27:16;;;;;;;25.25;8.75;;;1.50;99.90;;;;;;5033276;28;20025;-75
2024/01/28 07:29:43;;;;;;;20.52;8.40;;;1.50;99.90;;;;;;5033493;28;20029;-75
2024/01/28 07:32:13;;;;;;;19.63;8.57;;;1.50;99.90;;;;;;5033651;28;20021;-75
2024/01/28 07:34:40;;;;;;;17.23;7.55;;;1.50;99.90;;;;;;5030354;28;20109;-75
2024/01/28 07:37:06;;;;;;;19.60;8.65;;;1.60;99.90;;;;;;5032432;28;20104;-75
2024/01/28 07:39:31;;;;;;;20.58;9.15;;;1.60;99.90;;;;;;5034451;28;20060;-75
2024/01/28 07:41:58;;;;;;;20.70;8.35;;;1.60;99.90;;;;;;5032790;28;20052;-75
2024/01/28 07:44:25;;;;;;;17.92;7.43;;;1.60;99.90;;;;;;5032563;28;20081;-75
2024/01/28 07:46:53;;;;;;;13.20;7.10;;;1.70;99.90;;;;;;5030265;28;20414;-75
2024/01/28 07:49:19;;;;;;;16.90;8.07;;;1.70;99.90;;;;;;5033307;28;20029;-76
2024/01/28 07:51:45;;;;;;;17.45;7.18;;;1.80;99.90;;;;;;5033346;28;20105;-76
2024/01/28 07:54:11;;;;;;;15.82;7.25;;;1.80;99.90;;;;;;5032387;28;20112;-76
2024/01/28 07:56:37;;;;;;;19.25;7.15;;;1.80;99.90;;;;;;5034052;28;20482;-75
2024/01/28 07:59:03;;;;;;;14.98;7.10;;;1.70;99.90;;;;;;5031543;28;20034;-75
2024/01/28 08:01:30;;;;;;;16.20;7.20;;;1.70;99.90;;;;;;5033182;28;20025;-75
2024/01/28 08:03:57;;;;;;;20.75;8.18;;;1.70;99.90;;;;;;5033857;28;20490;-76
2024/01/28 08:06:22;;;;;;;21.08;8.55;;;1.70;99.90;;;;;;5031331;28;20044;-75
2024/01/28 08:08:48;;;;;;;18.13;6.88;;;1.70;99.90;;;;;;5024643;28;20068;-76
2024/01/28 08:11:14;;;;;;;15.48;7.32;;;1.70;99.90;;;;;;5010373;28;20025;-76
2024/01/28 08:13:41;;;;;;;19.20;8.13;;;1.80;99.90;;;;;;5031006;28;20488;-76
2024/01/28 08:16:07;;;;;;;16.67;8.05;;;1.80;99.90;;;;;;5031634;28;20018;-75
2024/01/28 08:18:32;;;;;;;15.95;7.90;;;1.90;99.90;;;;;;5033396;28;20030;-74
2024/01/28 08:20:58;;;;;;;19.40;7.13;;;1.90;99.90;;;;;;5032370;28;20474;-76
2024/01/28 08:23:26;;;;;;;18.33;7.50;;;1.90;99.90;;;;;;5031272;28;20065;-76
2024/01/28 08:25:53;;;;;;;15.40;7.38;;;1.80;99.90;;;;;;5033245;28;20021;-75
2024/01/28 08:28:20;;;;;;;16.02;7.18;;;1.80;99.90;;;;;;5033432;28;20044;-76
2024/01/28 08:30:48;;;;;;;16.23;7.45;;;1.80;99.90;;;;;;5026923;28;20103;-77
2024/01/28 08:33:14;;;;;;;14.63;6.60;;;1.90;99.90;;;;;;5017173;28;20024;-75
2024/01/28 08:35:39;;;;;;;10.95;6.10;;;2.00;99.90;;;;;;5031782;28;20025;-76
2024/01/28 08:38:05;;;;;;;25.75;6.13;;;2.00;99.90;;;;;;5031712;28;20028;-75
2024/01/28 08:40:31;;;;;;;12.68;6.13;;;2.00;99.90;;;;;;5031183;28;20048;-76
2024/01/28 08:42:57;;;;;;;12.95;6.15;;;2.00;99.90;;;;;;5022731;28;20429;-74
2024/01/28 08:45:23;;;;;;;13.43;6.40;;;2.00;99.90;;;;;;5025180;28;20040;-75
2024/01/28 08:47:50;;;;;;;12.30;6.45;;;2.30;99.90;;;;;;5012342;28;20034;-76
2024/01/28 08:50:15;;;;;;;17.60;6.70;;;2.30;99.90;;;;;;5012190;28;20034;-74
2024/01/28 08:52:42;;;;;;;11.88;6.85;;;2.30;99.90;;;;;;5013070;28;20053;-75
2024/01/28 08:55:08;;;;;;;13.65;6.47;;;2.50;99.90;;;;;;5012263;28;20029;-75
2024/01/28 08:57:34;;;;;;;12.57;6.97;;;2.50;99.90;;;;;;5020560;28;20025;-74
2024/01/28 09:00:00;;;;;;;14.30;7.13;;;2.60;99.90;;;;;;5018348;28;20533;-74
2024/01/28 09:02:26;;;;;;;14.55;6.47;;;2.50;99.90;;;;;;5023113;28;20082;-73
2024/01/28 09:04:52;;;;;;;17.83;8.00;;;2.50;99.90;;;;;;5022954;28;20124;-74
2024/01/28 09:07:18;;;;;;;17.42;7.00;;;2.60;99.90;;;;;;5032153;28;20420;-74
2024/01/28 09:09:44;;;;;;;13.50;6.30;;;2.60;99.90;;;;;;5028623;28;20581;-75
2024/01/28 09:12:09;;;;;;;12.13;6.80;;;2.60;99.90;;;;;;5015276;28;20026;-74
2024/01/28 09:14:36;;;;;;;12.88;5.93;;;2.60;99.90;;;;;;5012340;28;20029;-74
2024/01/28 09:17:02;;;;;;;17.85;6.10;;;2.60;99.90;;;;;;5021693;28;20099;-74
2024/01/28 09:19:28;;;;;;;14.00;6.95;;;2.70;99.90;;;;;;5026693;28;20018;-72
2024/01/28 09:21:54;;;;;;;19.83;6.80;;;2.80;99.90;;;;;;5030038;28;20039;-73
2024/01/28 09:24:20;;;;;;;12.77;6.82;;;2.90;99.90;;;;;;5023869;28;20038;-73
2024/01/28 09:26:46;;;;;;;15.10;5.97;;;2.90;99.90;;;;;;5027351;28;20056;-73
2024/01/28 09:29:12;;;;;;;12.05;5.60;;;2.90;99.90;;;;;;5028519;28;20033;-74
2024/01/28 09:31:42;;;;;;;13.48;5.78;;;2.90;99.90;;;;;;5027278;28;20470;-73
2024/01/28 09:34:08;;;;;;;10.95;5.20;;;3.00;99.90;;;;;;5031778;28;20025;-74
2024/01/28 09:36:34;;;;;;;13.48;5.32;;;3.00;99.90;;;;;;5031060;28;20443;-74
2024/01/28 09:38:59;;;;;;;11.07;5.10;;;3.00;99.90;;;;;;5030533;28;20386;-74
2024/01/28 09:41:31;;;;;;;10.55;4.78;;;3.20;99.90;;;;;;5032452;28;20449;-74
2024/01/28 09:43:56;;;;;;;12.77;5.15;;;3.30;99.90;;;;;;5031875;28;20029;-74
2024/01/28 09:46:24;;;;;;;14.13;4.93;;;3.40;99.90;;;;;;5030739;28;20033;-74
2024/01/28 09:48:51;;;;;;;16.15;4.47;;;3.60;99.90;;;;;;5030496;28;20108;-74
2024/01/28 09:51:22;;;;;;;11.38;5.18;;;3.50;99.90;;;;;;5028021;28;20128;-74
2024/01/28 09:53:48;;;;;;;9.95;4.82;;;3.70;99.90;;;;;;5031082;28;20029;-74
2024/01/28 09:56:16;;;;;;;9.70;5.43;;;3.90;99.90;;;;;;5032600;28;20462;-74
2024/01/28 09:58:42;;;;;;;9.65;5.22;;;4.00;99.90;;;;;;5024224;28;20029;-74
2024/01/28 10:01:10;;;;;;;12.05;5.20;;;4.10;99.90;;;;;;5022981;28;20022;-74
2024/01/28 10:03:37;;;;;;;11.60;4.82;;;4.20;99.90;;;;;;5016247;28;20149;-75
2024/01/28 10:06:04;;;;;;;16.73;5.05;;;4.30;99.90;;;;;;5030073;28;20021;-75
2024/01/28 10:08:31;;;;;;;7.93;4.82;;;4.40;99.90;;;;;;5016182;28;20113;-75
2024/01/28 10:10:58;;;;;;;11.18;5.00;;;4.50;99.90;;;;;;5023230;28;20029;-75
2024/01/28 10:13:26;;;;;;;12.80;5.85;;;4.60;99.90;;;;;;5024148;28;20067;-75
2024/01/28 10:15:56;;;;;;;14.25;5.95;;;4.70;99.90;;;;;;5014124;28;20025;-75
2024/01/28 10:18:23;;;;;;;9.43;4.70;;;4.80;99.90;;;;;;5015617;28;20022;-75
2024/01/28 10:20:49;;;;;;;10.88;4.65;;;4.80;99.90;;;;;;5030598;28;20048;-75
2024/01/28 10:23:15;;;;;;;11.20;4.60;;;5.00;99.90;;;;;;5025696;28;20030;-75
2024/01/28 10:25:41;;;;;;;6.97;4.20;;;5.10;99.90;;;;;;5014426;28;20040;-75
2024/01/28 10:28:08;;;;;;;10.85;4.28;;;5.10;99.90;;;;;;5025650;28;20482;-75
2024/01/28 10:30:34;;;;;;;12.02;4.25;;;5.20;99.90;;;;;;5016078;28;20630;-75
2024/01/28 10:33:00;;;;;;;7.65;3.90;;;5.30;99.90;;;;;;5014134;28;20117;-75
2024/01/28 10:35:25;;;;;;;8.48;4.28;;;5.30;99.90;;;;;;5013837;28;20112;-75
2024/01/28 10:37:55;;;;;;;11.82;5.05;;;5.50;99.90;;;;;;5014565;28;20057;-76
2024/01/28 10:40:32;;;;;;;6.32;4.50;;;5.50;99.90;;;;;;5034000;28;20061;-77
2024/01/28 10:43:04;;;;;;;6.60;4.05;;;5.70;99.90;;;;;;5037177;28;20382;-77
2024/01/28 10:45:32;;;;;;;7.53;3.47;;;5.70;99.90;;;;;;5035022;28;20434;-78
2024/01/28 10:48:06;;;;;;;8.75;4.18;;;5.90;99.90;;;;;;5033468;28;20032;-75
2024/01/28 10:50:32;;;;;;;10.23;3.70;;;6.00;99.90;;;;;;5033148;28;20071;-79
2024/01/28 10:53:00;;;;;;;5.97;3.40;;;6.00;99.90;;;;;;5035816;28;20026;-77
2024/01/28 10:55:26;;;;;;;8.65;3.78;;;6.10;99.90;;;;;;5033919;28;20021;-75
2024/01/28 10:57:54;;;;;;;8.35;3.83;;;6.20;99.90;;;;;;5034233;28;20029;-78
2024/01/28 11:00:24;;;;;;;11.23;4.40;;;6.20;99.90;;;;;;5035209;28;20037;-78
2024/01/28 11:02:50;;;;;;;9.30;4.38;;;6.30;99.90;;;;;;5034562;28;20029;-78
2024/01/28 11:05:17;;;;;;;11.25;3.70;;;6.30;99.90;;;;;;5034031;28;20078;-79
2024/01/28 11:07:43;;;;;;;10.68;4.07;;;6.30;99.90;;;;;;5034708;28;20036;-80
2024/01/28 11:10:10;;;;;;;8.23;4.00;;;6.40;99.90;;;;;;5032896;28;20033;-79
2024/01/28 11:12:36;;;;;;;9.45;4.15;;;6.50;99.90;;;;;;5033492;28;20063;-80
2024/01/28 11:15:02;;;;;;;9.48;3.70;;;6.60;99.90;;;;;;5034120;28;20029;-81
2024/01/28 11:17:37;;;;;;;7.95;4.22;;;6.60;99.90;;;;;;5032003;28;20031;-75
2024/01/28 11:20:10;;;;;;;6.43;4.40;;;6.60;99.90;;;;;;5034172;28;20024;-78
2024/01/28 11:22:53;;;;;;;11.18;4.60;;;6.60;99.90;;;;;;5032737;28;20035;-77
2024/01/28 11:25:24;;;;;;;;;;;6.70;99.90;;;;;;5033485;28;20037;-78
2024/01/28 11:27:51;;;;;;;11.32;4.25;;;6.80;99.90;;;;;;5034471;28;19909;-76
2024/01/28 11:30:23;;;;;;;12.18;4.55;;;6.80;99.90;;;;;;5031610;28;20064;-77
2024/01/28 11:32:55;;;;;;;10.25;4.20;;;6.90;99.90;;;;;;5023032;28;20029;-77
2024/01/28 11:35:23;;;;;;;;;;;7.00;99.90;;;;;;5024353;28;20029;-76
2024/01/28 11:37:52;;;;;;;11.15;4.22;;;7.00;99.90;;;;;;5031095;28;19905;-77
2024/01/28 11:40:23;;;;;;;10.63;4.40;;;7.10;99.90;;;;;;5027016;28;20101;-79
2024/01/28 11:42:53;;;;;;;5.73;3.57;;;7.20;99.90;;;;;;5032079;28;20029;-78
2024/01/28 11:45:22;;;;;;;9.23;4.20;;;7.10;99.90;;;;;;5032989;28;20026;-78
2024/01/28 11:47:49;;;;;;;8.05;3.50;;;7.10;99.90;;;;;;5022448;28;20470;-81
2024/01/28 11:50:16;;;;;;;5.85;3.67;;;7.10;99.90;;;;;;5008005;28;20068;-77
2024/01/28 11:52:42;;;;;;;5.65;3.47;;;7.20;99.90;;;;;;5031120;28;20028;-79
2024/01/28 11:55:13;;;;;;;6.85;4.00;;;7.20;99.90;;;;;;5031040;28;20520;-80
2024/01/28 11:57:40;;;;;;;10.52;4.80;;;7.20;99.90;;;;;;5031700;28;20024;-77
2024/01/28 12:00:10;;;;;;;6.57;4.00;;;7.30;99.90;;;;;;5032573;28;20029;-79
2024/01/28 12:02:37;;;;;;;6.68;3.15;;;7.30;99.90;;;;;;5030212;28;20032;-81
2024/01/28 12:05:03;;;;;;;7.32;3.20;;;7.40;99.90;;;;;;5028047;28;20035;-77
2024/01/28 12:07:34;;;;;;;9.10;3.67;;;7.50;99.90;;;;;;5027242;28;20054;-81
2024/01/28 12:10:00;;;;;;;13.13;4.22;;;7.50;99.90;;;;;;5029814;28;20021;-79
2024/01/28 12:12:27;;;;;;;6.63;3.75;;;7.50;99.90;;;;;;5030583;28;20073;-81
2024/01/28 12:14:53;;;;;;;6.53;3.78;;;7.60;99.90;;;;;;5031839;28;20097;-77
2024/01/28 12:17:19;;;;;;;6.55;3.83;;;7.50;99.90;;;;;;5031337;28;20172;-80
2024/01/28 12:19:45;;;;;;;6.30;2.83;;;7.60;99.90;;;;;;5032083;28;20033;-79
2024/01/28 12:22:11;;;;;;;11.85;3.42;;;7.70;99.90;;;;;;5032386;28;20083;-80
2024/01/28 12:24:44;;;;;;;5.85;3.40;;;7.70;99.90;;;;;;5033000;28;20041;-80
2024/01/28 12:27:10;;;;;;;6.78;3.63;;;7.70;99.90;;;;;;5031308;28;20036;-81
2024/01/28 12:29:36;;;;;;;5.75;3.42;;;7.90;99.90;;;;;;5031314;28;20025;-79
2024/01/28 12:32:02;;;;;;;10.15;3.78;;;8.10;99.90;;;;;;5030418;28;20419;-78
2024/01/28 12:34:28;;;;;;;6.43;3.13;;;8.10;99.90;;;;;;5030235;28;20017;-79
2024/01/28 12:36:54;;;;;;;4.75;3.13;;;8.20;99.90;;;;;;5030286;28;20041;-80
2024/01/28 12:39:20;;;;;;;7.55;2.95;;;8.40;99.90;;;;;;5031793;28;20528;-78